Nipawin, Canada
Current Conditions -  °F | °C
As of 12:00 PM on Friday 28 Nov 2014 (Local Time) from CYBU Reporting Station
Light Snow Light Snow  
Wind Chill: -24°   Ceiling: 1500
Heat Index: -4°   Visibility: 1mi
Dew Point: -9°   Wind: 15mph
Humidity: 78%   Direction: 20°NNE
Pressure: 29.9"   Gusts: 23mph
Location:  53.37°N, 104.02°W
Report Text: CYBU 281800Z AUTO 02013G20KT 1SM -SN VV015 M20/M23 A2990 RMK SLP164
Loading
Personal Weather Stations






























Interactive Weather Map New forecast layout! Learn more

10-Day Weather Forecast

Advertisements
Track Severe Weather on mobile